sensor_id;sensor_type;location;lat;lon;timestamp;P1;durP1;ratioP1;P2;durP2;ratioP2
43682;SDS011;29285;52.128;21.060;2024-02-23T00:01:48;8.00;;;6.40;;
43682;SDS011;29285;52.128;21.060;2024-02-23T00:06:49;5.70;;;5.10;;
43682;SDS011;29285;52.128;21.060;2024-02-23T00:11:51;7.30;;;5.50;;
43682;SDS011;29285;52.128;21.060;2024-02-23T00:16:52;7.50;;;5.60;;
43682;SDS011;29285;52.128;21.060;2024-02-23T00:21:53;6.90;;;5.40;;
43682;SDS011;29285;52.128;21.060;2024-02-23T00:26:54;7.70;;;6.00;;
43682;SDS011;29285;52.128;21.060;2024-02-23T00:31:55;7.00;;;5.40;;
43682;SDS011;29285;52.128;21.060;2024-02-23T00:36:56;7.60;;;5.40;;
43682;SDS011;29285;52.128;21.060;2024-02-23T00:41:57;6.30;;;5.60;;
43682;SDS011;29285;52.128;21.060;2024-02-23T00:46:58;6.70;;;5.00;;
43682;SDS011;29285;52.128;21.060;2024-02-23T00:52:04;7.60;;;5.00;;
43682;SDS011;29285;52.128;21.060;2024-02-23T00:57:05;6.80;;;5.20;;
43682;SDS011;29285;52.128;21.060;2024-02-23T01:02:06;5.90;;;5.20;;
43682;SDS011;29285;52.128;21.060;2024-02-23T01:07:07;6.70;;;5.20;;
43682;SDS011;29285;52.128;21.060;2024-02-23T01:12:08;6.30;;;5.10;;
43682;SDS011;29285;52.128;21.060;2024-02-23T01:17:09;6.70;;;5.40;;
43682;SDS011;29285;52.128;21.060;2024-02-23T01:22:10;6.40;;;4.90;;
43682;SDS011;29285;52.128;21.060;2024-02-23T01:27:11;6.90;;;4.40;;
43682;SDS011;29285;52.128;21.060;2024-02-23T01:32:12;5.40;;;4.80;;
43682;SDS011;29285;52.128;21.060;2024-02-23T01:37:13;6.10;;;5.10;;
43682;SDS011;29285;52.128;21.060;2024-02-23T01:42:15;7.60;;;4.90;;
43682;SDS011;29285;52.128;21.060;2024-02-23T01:47:16;5.70;;;4.70;;
43682;SDS011;29285;52.128;21.060;2024-02-23T01:52:17;5.70;;;4.20;;
43682;SDS011;29285;52.128;21.060;2024-02-23T01:57:19;5.30;;;4.40;;
43682;SDS011;29285;52.128;21.060;2024-02-23T02:02:22;7.30;;;4.40;;
43682;SDS011;29285;52.128;21.060;2024-02-23T02:07:23;4.30;;;3.90;;
43682;SDS011;29285;52.128;21.060;2024-02-23T02:12:26;5.30;;;4.40;;
43682;SDS011;29285;52.128;21.060;2024-02-23T02:17:30;4.70;;;4.20;;
43682;SDS011;29285;52.128;21.060;2024-02-23T02:22:34;4.70;;;3.40;;
43682;SDS011;29285;52.128;21.060;2024-02-23T02:27:35;4.20;;;3.50;;
43682;SDS011;29285;52.128;21.060;2024-02-23T02:32:36;5.30;;;4.30;;
43682;SDS011;29285;52.128;21.060;2024-02-23T02:37:37;4.70;;;3.80;;
43682;SDS011;29285;52.128;21.060;2024-02-23T02:42:39;3.80;;;3.40;;
43682;SDS011;29285;52.128;21.060;2024-02-23T02:47:40;4.50;;;3.50;;
43682;SDS011;29285;52.128;21.060;2024-02-23T02:52:42;5.30;;;3.60;;
43682;SDS011;29285;52.128;21.060;2024-02-23T02:57:43;3.60;;;3.30;;
43682;SDS011;29285;52.128;21.060;2024-02-23T03:02:45;6.10;;;3.30;;
43682;SDS011;29285;52.128;21.060;2024-02-23T03:07:46;5.30;;;3.70;;
43682;SDS011;29285;52.128;21.060;2024-02-23T03:12:47;3.20;;;2.80;;
43682;SDS011;29285;52.128;21.060;2024-02-23T03:17:48;3.20;;;2.80;;
43682;SDS011;29285;52.128;21.060;2024-02-23T03:22:49;3.10;;;2.50;;
43682;SDS011;29285;52.128;21.060;2024-02-23T03:27:50;3.70;;;3.00;;
43682;SDS011;29285;52.128;21.060;2024-02-23T03:32:51;2.90;;;2.60;;
43682;SDS011;29285;52.128;21.060;2024-02-23T03:37:52;3.10;;;2.80;;
43682;SDS011;29285;52.128;21.060;2024-02-23T03:42:53;3.80;;;3.20;;
43682;SDS011;29285;52.128;21.060;2024-02-23T03:47:54;3.90;;;2.90;;
43682;SDS011;29285;52.128;21.060;2024-02-23T03:52:55;4.00;;;2.90;;
43682;SDS011;29285;52.128;21.060;2024-02-23T03:57:56;3.80;;;3.20;;
43682;SDS011;29285;52.128;21.060;2024-02-23T04:02:58;3.40;;;3.00;;
43682;SDS011;29285;52.128;21.060;2024-02-23T04:07:59;3.50;;;3.20;;
43682;SDS011;29285;52.128;21.060;2024-02-23T04:13:00;4.30;;;3.00;;
43682;SDS011;29285;52.128;21.060;2024-02-23T04:18:01;3.00;;;2.70;;
43682;SDS011;29285;52.128;21.060;2024-02-23T04:23:02;2.40;;;2.20;;
43682;SDS011;29285;52.128;21.060;2024-02-23T04:28:03;3.30;;;2.60;;
43682;SDS011;29285;52.128;21.060;2024-02-23T04:33:04;7.70;;;2.90;;
43682;SDS011;29285;52.128;21.060;2024-02-23T04:38:05;4.20;;;2.90;;
43682;SDS011;29285;52.128;21.060;2024-02-23T04:43:06;3.00;;;2.50;;
43682;SDS011;29285;52.128;21.060;2024-02-23T04:48:07;3.40;;;2.70;;
43682;SDS011;29285;52.128;21.060;2024-02-23T04:53:08;4.10;;;2.90;;
43682;SDS011;29285;52.128;21.060;2024-02-23T04:58:09;2.80;;;2.60;;
43682;SDS011;29285;52.128;21.060;2024-02-23T05:03:11;4.10;;;3.00;;
43682;SDS011;29285;52.128;21.060;2024-02-23T05:08:12;3.30;;;2.80;;
43682;SDS011;29285;52.128;21.060;2024-02-23T05:13:13;3.60;;;2.90;;
43682;SDS011;29285;52.128;21.060;2024-02-23T05:18:14;3.80;;;2.40;;
43682;SDS011;29285;52.128;21.060;2024-02-23T05:23:15;3.00;;;2.30;;
43682;SDS011;29285;52.128;21.060;2024-02-23T05:28:16;2.50;;;2.00;;
43682;SDS011;29285;52.128;21.060;2024-02-23T05:33:17;3.30;;;2.80;;
43682;SDS011;29285;52.128;21.060;2024-02-23T05:38:21;2.30;;;1.90;;
43682;SDS011;29285;52.128;21.060;2024-02-23T05:43:21;3.00;;;2.60;;
43682;SDS011;29285;52.128;21.060;2024-02-23T05:48:23;4.30;;;2.80;;
43682;SDS011;29285;52.128;21.060;2024-02-23T05:53:24;3.70;;;2.20;;
43682;SDS011;29285;52.128;21.060;2024-02-23T05:58:24;2.40;;;2.20;;
43682;SDS011;29285;52.128;21.060;2024-02-23T06:03:25;3.50;;;2.10;;
43682;SDS011;29285;52.128;21.060;2024-02-23T06:08:26;3.30;;;2.00;;
43682;SDS011;29285;52.128;21.060;2024-02-23T06:13:27;2.30;;;2.00;;
43682;SDS011;29285;52.128;21.060;2024-02-23T06:18:29;2.80;;;1.90;;
43682;SDS011;29285;52.128;21.060;2024-02-23T06:23:30;2.40;;;2.10;;
43682;SDS011;29285;52.128;21.060;2024-02-23T06:28:31;3.30;;;2.20;;
43682;SDS011;29285;52.128;21.060;2024-02-23T06:33:32;3.40;;;2.20;;
43682;SDS011;29285;52.128;21.060;2024-02-23T06:38:33;2.40;;;2.10;;
43682;SDS011;29285;52.128;21.060;2024-02-23T06:43:34;3.00;;;2.60;;
43682;SDS011;29285;52.128;21.060;2024-02-23T06:48:35;3.60;;;2.60;;
43682;SDS011;29285;52.128;21.060;2024-02-23T06:53:37;2.60;;;2.00;;
43682;SDS011;29285;52.128;21.060;2024-02-23T06:58:38;2.90;;;2.10;;
43682;SDS011;29285;52.128;21.060;2024-02-23T07:03:39;3.20;;;2.90;;
43682;SDS011;29285;52.128;21.060;2024-02-23T07:08:43;2.80;;;2.00;;
43682;SDS011;29285;52.128;21.060;2024-02-23T07:13:45;2.70;;;1.50;;
43682;SDS011;29285;52.128;21.060;2024-02-23T07:18:46;4.60;;;2.60;;
43682;SDS011;29285;52.128;21.060;2024-02-23T07:23:47;3.00;;;2.10;;
43682;SDS011;29285;52.128;21.060;2024-02-23T07:28:48;3.90;;;1.90;;
43682;SDS011;29285;52.128;21.060;2024-02-23T07:33:49;2.90;;;2.30;;
43682;SDS011;29285;52.128;21.060;2024-02-23T07:38:51;3.60;;;2.00;;
43682;SDS011;29285;52.128;21.060;2024-02-23T07:43:52;4.50;;;2.70;;
43682;SDS011;29285;52.128;21.060;2024-02-23T07:48:53;5.20;;;2.80;;
43682;SDS011;29285;52.128;21.060;2024-02-23T07:53:54;3.00;;;2.20;;
43682;SDS011;29285;52.128;21.060;2024-02-23T07:58:56;2.90;;;2.50;;
43682;SDS011;29285;52.128;21.060;2024-02-23T08:03:57;3.10;;;2.30;;
43682;SDS011;29285;52.128;21.060;2024-02-23T08:08:58;4.20;;;3.10;;
43682;SDS011;29285;52.128;21.060;2024-02-23T08:13:59;3.90;;;2.40;;
43682;SDS011;29285;52.128;21.060;2024-02-23T08:19:00;2.60;;;2.20;;
43682;SDS011;29285;52.128;21.060;2024-02-23T08:24:01;3.80;;;2.80;;
43682;SDS011;29285;52.128;21.060;2024-02-23T08:29:03;3.40;;;2.50;;
43682;SDS011;29285;52.128;21.060;2024-02-23T08:34:05;5.50;;;3.00;;
43682;SDS011;29285;52.128;21.060;2024-02-23T08:39:07;3.40;;;2.90;;
43682;SDS011;29285;52.128;21.060;2024-02-23T08:44:09;4.00;;;2.60;;
43682;SDS011;29285;52.128;21.060;2024-02-23T08:49:10;3.40;;;2.60;;
43682;SDS011;29285;52.128;21.060;2024-02-23T08:54:11;4.90;;;2.70;;
43682;SDS011;29285;52.128;21.060;2024-02-23T08:59:12;4.70;;;3.20;;
43682;SDS011;29285;52.128;21.060;2024-02-23T09:04:13;3.80;;;3.30;;
43682;SDS011;29285;52.128;21.060;2024-02-23T09:09:14;4.30;;;2.90;;
43682;SDS011;29285;52.128;21.060;2024-02-23T09:14:15;3.90;;;3.10;;
43682;SDS011;29285;52.128;21.060;2024-02-23T09:19:16;4.10;;;3.30;;
43682;SDS011;29285;52.128;21.060;2024-02-23T09:24:17;7.30;;;3.90;;
43682;SDS011;29285;52.128;21.060;2024-02-23T09:29:18;4.50;;;3.70;;
43682;SDS011;29285;52.128;21.060;2024-02-23T09:34:19;3.80;;;2.90;;
43682;SDS011;29285;52.128;21.060;2024-02-23T09:39:20;4.20;;;2.80;;
43682;SDS011;29285;52.128;21.060;2024-02-23T09:44:21;5.90;;;3.90;;
43682;SDS011;29285;52.128;21.060;2024-02-23T09:49:22;3.10;;;2.80;;
43682;SDS011;29285;52.128;21.060;2024-02-23T09:54:24;4.20;;;3.70;;
43682;SDS011;29285;52.128;21.060;2024-02-23T09:59:25;5.30;;;3.30;;
43682;SDS011;29285;52.128;21.060;2024-02-23T10:04:28;3.80;;;3.30;;
43682;SDS011;29285;52.128;21.060;2024-02-23T10:09:30;4.50;;;3.50;;
43682;SDS011;29285;52.128;21.060;2024-02-23T10:14:31;6.00;;;3.80;;
43682;SDS011;29285;52.128;21.060;2024-02-23T10:19:33;3.70;;;3.00;;
43682;SDS011;29285;52.128;21.060;2024-02-23T10:24:34;4.60;;;3.70;;
43682;SDS011;29285;52.128;21.060;2024-02-23T10:29:37;6.10;;;3.80;;
43682;SDS011;29285;52.128;21.060;2024-02-23T10:34:38;6.10;;;3.90;;
43682;SDS011;29285;52.128;21.060;2024-02-23T10:39:42;5.40;;;4.40;;
43682;SDS011;29285;52.128;21.060;2024-02-23T10:44:43;5.30;;;3.90;;
43682;SDS011;29285;52.128;21.060;2024-02-23T10:49:45;5.70;;;4.20;;
43682;SDS011;29285;52.128;21.060;2024-02-23T10:54:46;4.10;;;3.30;;
43682;SDS011;29285;52.128;21.060;2024-02-23T10:59:49;3.90;;;3.30;;
43682;SDS011;29285;52.128;21.060;2024-02-23T11:04:50;5.50;;;4.00;;
43682;SDS011;29285;52.128;21.060;2024-02-23T11:09:53;7.10;;;4.80;;
43682;SDS011;29285;52.128;21.060;2024-02-23T11:14:57;4.20;;;3.80;;
43682;SDS011;29285;52.128;21.060;2024-02-23T11:20:02;6.10;;;3.90;;
43682;SDS011;29285;52.128;21.060;2024-02-23T11:25:04;6.20;;;4.00;;
43682;SDS011;29285;52.128;21.060;2024-02-23T11:30:07;7.80;;;4.50;;
43682;SDS011;29285;52.128;21.060;2024-02-23T11:35:11;7.90;;;4.50;;
43682;SDS011;29285;52.128;21.060;2024-02-23T11:40:13;8.70;;;4.40;;
43682;SDS011;29285;52.128;21.060;2024-02-23T11:45:14;7.60;;;4.30;;
43682;SDS011;29285;52.128;21.060;2024-02-23T11:50:15;6.70;;;4.60;;
43682;SDS011;29285;52.128;21.060;2024-02-23T11:55:20;5.60;;;4.40;;
43682;SDS011;29285;52.128;21.060;2024-02-23T12:00:24;6.00;;;4.10;;
43682;SDS011;29285;52.128;21.060;2024-02-23T12:05:25;5.50;;;4.30;;
43682;SDS011;29285;52.128;21.060;2024-02-23T12:10:27;6.80;;;4.90;;
43682;SDS011;29285;52.128;21.060;2024-02-23T12:15:28;6.40;;;4.60;;
43682;SDS011;29285;52.128;21.060;2024-02-23T12:20:32;6.60;;;4.90;;
43682;SDS011;29285;52.128;21.060;2024-02-23T12:30:34;7.50;;;4.80;;
43682;SDS011;29285;52.128;21.060;2024-02-23T12:35:35;6.70;;;4.60;;
43682;SDS011;29285;52.128;21.060;2024-02-23T12:40:36;6.80;;;5.30;;
43682;SDS011;29285;52.128;21.060;2024-02-23T12:45:37;5.70;;;4.70;;
43682;SDS011;29285;52.128;21.060;2024-02-23T12:50:38;6.60;;;4.60;;
43682;SDS011;29285;52.128;21.060;2024-02-23T12:55:39;6.40;;;5.70;;
43682;SDS011;29285;52.128;21.060;2024-02-23T13:00:41;6.10;;;4.80;;
43682;SDS011;29285;52.128;21.060;2024-02-23T13:05:42;5.90;;;5.30;;
43682;SDS011;29285;52.128;21.060;2024-02-23T13:10:43;7.40;;;5.40;;
43682;SDS011;29285;52.128;21.060;2024-02-23T13:15:44;5.20;;;4.70;;
43682;SDS011;29285;52.128;21.060;2024-02-23T13:20:46;6.30;;;5.30;;
43682;SDS011;29285;52.128;21.060;2024-02-23T13:25:47;6.90;;;5.30;;
43682;SDS011;29285;52.128;21.060;2024-02-23T13:30:48;6.30;;;4.90;;
43682;SDS011;29285;52.128;21.060;2024-02-23T13:35:49;6.20;;;5.30;;
43682;SDS011;29285;52.128;21.060;2024-02-23T13:40:50;6.50;;;5.00;;
43682;SDS011;29285;52.128;21.060;2024-02-23T13:45:51;6.00;;;4.90;;
43682;SDS011;29285;52.128;21.060;2024-02-23T13:50:53;7.20;;;5.70;;
43682;SDS011;29285;52.128;21.060;2024-02-23T13:55:54;7.40;;;5.50;;
43682;SDS011;29285;52.128;21.060;2024-02-23T14:00:55;7.90;;;5.20;;
43682;SDS011;29285;52.128;21.060;2024-02-23T14:05:56;8.50;;;6.70;;
43682;SDS011;29285;52.128;21.060;2024-02-23T14:10:58;8.90;;;6.50;;
43682;SDS011;29285;52.128;21.060;2024-02-23T14:15:59;6.90;;;5.70;;
43682;SDS011;29285;52.128;21.060;2024-02-23T14:21:03;6.70;;;5.90;;
43682;SDS011;29285;52.128;21.060;2024-02-23T14:26:05;9.60;;;6.70;;
43682;SDS011;29285;52.128;21.060;2024-02-23T14:31:06;8.10;;;5.80;;
43682;SDS011;29285;52.128;21.060;2024-02-23T14:36:07;6.70;;;5.70;;
43682;SDS011;29285;52.128;21.060;2024-02-23T14:41:08;7.50;;;6.00;;
43682;SDS011;29285;52.128;21.060;2024-02-23T14:46:10;7.40;;;6.40;;
43682;SDS011;29285;52.128;21.060;2024-02-23T14:51:11;7.90;;;6.50;;
43682;SDS011;29285;52.128;21.060;2024-02-23T14:56:12;7.50;;;6.20;;
43682;SDS011;29285;52.128;21.060;2024-02-23T15:01:12;7.70;;;6.60;;
43682;SDS011;29285;52.128;21.060;2024-02-23T15:06:13;7.60;;;6.00;;
43682;SDS011;29285;52.128;21.060;2024-02-23T15:11:14;12.00;;;6.10;;
43682;SDS011;29285;52.128;21.060;2024-02-23T15:16:15;7.70;;;6.20;;
43682;SDS011;29285;52.128;21.060;2024-02-23T15:21:16;12.20;;;10.50;;
43682;SDS011;29285;52.128;21.060;2024-02-23T15:26:18;7.80;;;7.00;;
43682;SDS011;29285;52.128;21.060;2024-02-23T15:31:19;9.00;;;6.40;;
43682;SDS011;29285;52.128;21.060;2024-02-23T15:36:21;7.30;;;6.40;;
43682;SDS011;29285;52.128;21.060;2024-02-23T15:41:22;9.50;;;7.30;;
43682;SDS011;29285;52.128;21.060;2024-02-23T15:46:23;8.20;;;7.40;;
43682;SDS011;29285;52.128;21.060;2024-02-23T15:51:24;8.80;;;7.40;;
43682;SDS011;29285;52.128;21.060;2024-02-23T15:56:25;12.60;;;7.90;;
43682;SDS011;29285;52.128;21.060;2024-02-23T16:01:26;10.10;;;7.60;;
43682;SDS011;29285;52.128;21.060;2024-02-23T16:06:28;10.30;;;8.50;;
43682;SDS011;29285;52.128;21.060;2024-02-23T16:11:33;14.30;;;10.90;;
43682;SDS011;29285;52.128;21.060;2024-02-23T16:16:35;11.10;;;9.30;;
43682;SDS011;29285;52.128;21.060;2024-02-23T16:21:36;12.10;;;8.80;;
43682;SDS011;29285;52.128;21.060;2024-02-23T16:26:41;12.50;;;8.70;;
43682;SDS011;29285;52.128;21.060;2024-02-23T16:31:42;10.50;;;8.70;;
43682;SDS011;29285;52.128;21.060;2024-02-23T16:36:43;11.50;;;8.90;;
43682;SDS011;29285;52.128;21.060;2024-02-23T16:41:45;10.30;;;8.30;;
43682;SDS011;29285;52.128;21.060;2024-02-23T16:46:46;11.20;;;9.50;;
43682;SDS011;29285;52.128;21.060;2024-02-23T16:51:47;9.90;;;8.80;;
43682;SDS011;29285;52.128;21.060;2024-02-23T17:02:09;8.10;;;6.70;;
43682;SDS011;29285;52.128;21.060;2024-02-23T17:07:10;11.00;;;8.70;;
43682;SDS011;29285;52.128;21.060;2024-02-23T17:12:12;12.60;;;10.60;;
43682;SDS011;29285;52.128;21.060;2024-02-23T17:17:18;13.20;;;10.50;;
43682;SDS011;29285;52.128;21.060;2024-02-23T17:22:19;12.60;;;10.50;;
43682;SDS011;29285;52.128;21.060;2024-02-23T17:27:25;14.80;;;11.60;;
43682;SDS011;29285;52.128;21.060;2024-02-23T17:32:26;14.80;;;11.40;;
43682;SDS011;29285;52.128;21.060;2024-02-23T17:37:27;15.70;;;11.50;;
43682;SDS011;29285;52.128;21.060;2024-02-23T17:42:28;14.50;;;11.50;;
43682;SDS011;29285;52.128;21.060;2024-02-23T17:47:29;13.90;;;12.30;;
43682;SDS011;29285;52.128;21.060;2024-02-23T17:52:30;13.30;;;11.80;;
43682;SDS011;29285;52.128;21.060;2024-02-23T17:57:31;15.40;;;12.50;;
43682;SDS011;29285;52.128;21.060;2024-02-23T18:02:32;16.00;;;13.70;;
43682;SDS011;29285;52.128;21.060;2024-02-23T18:07:33;15.70;;;12.20;;
43682;SDS011;29285;52.128;21.060;2024-02-23T18:12:34;14.50;;;12.50;;
43682;SDS011;29285;52.128;21.060;2024-02-23T18:17:35;16.80;;;14.20;;
43682;SDS011;29285;52.128;21.060;2024-02-23T18:22:36;14.50;;;12.50;;
43682;SDS011;29285;52.128;21.060;2024-02-23T18:27:37;17.10;;;13.10;;
43682;SDS011;29285;52.128;21.060;2024-02-23T18:32:39;16.10;;;12.90;;
43682;SDS011;29285;52.128;21.060;2024-02-23T18:37:40;18.60;;;14.00;;
43682;SDS011;29285;52.128;21.060;2024-02-23T18:42:41;20.10;;;15.70;;
43682;SDS011;29285;52.128;21.060;2024-02-23T18:47:42;17.40;;;13.60;;
43682;SDS011;29285;52.128;21.060;2024-02-23T18:52:42;17.80;;;14.60;;
43682;SDS011;29285;52.128;21.060;2024-02-23T18:57:44;19.20;;;15.00;;
43682;SDS011;29285;52.128;21.060;2024-02-23T19:02:44;17.90;;;14.30;;
43682;SDS011;29285;52.128;21.060;2024-02-23T19:07:45;20.30;;;15.80;;
43682;SDS011;29285;52.128;21.060;2024-02-23T19:12:46;21.10;;;16.80;;
43682;SDS011;29285;52.128;21.060;2024-02-23T19:17:47;21.90;;;17.60;;
43682;SDS011;29285;52.128;21.060;2024-02-23T19:22:49;22.10;;;16.50;;
43682;SDS011;29285;52.128;21.060;2024-02-23T19:27:54;31.50;;;19.50;;
43682;SDS011;29285;52.128;21.060;2024-02-23T19:32:55;29.50;;;20.00;;
43682;SDS011;29285;52.128;21.060;2024-02-23T19:37:56;28.30;;;19.70;;
43682;SDS011;29285;52.128;21.060;2024-02-23T19:42:57;28.50;;;21.80;;
43682;SDS011;29285;52.128;21.060;2024-02-23T19:47:58;26.60;;;19.60;;
43682;SDS011;29285;52.128;21.060;2024-02-23T19:52:59;30.10;;;21.30;;
43682;SDS011;29285;52.128;21.060;2024-02-23T19:58:00;31.10;;;22.40;;
43682;SDS011;29285;52.128;21.060;2024-02-23T20:03:01;31.30;;;22.10;;
43682;SDS011;29285;52.128;21.060;2024-02-23T20:08:02;29.80;;;21.70;;
43682;SDS011;29285;52.128;21.060;2024-02-23T20:13:03;31.30;;;21.50;;
43682;SDS011;29285;52.128;21.060;2024-02-23T20:18:04;31.10;;;21.80;;
43682;SDS011;29285;52.128;21.060;2024-02-23T20:23:05;31.10;;;22.00;;
43682;SDS011;29285;52.128;21.060;2024-02-23T20:28:06;30.60;;;22.60;;
43682;SDS011;29285;52.128;21.060;2024-02-23T20:33:07;32.30;;;22.80;;
43682;SDS011;29285;52.128;21.060;2024-02-23T20:38:09;34.30;;;22.80;;
43682;SDS011;29285;52.128;21.060;2024-02-23T20:43:10;32.60;;;23.20;;
43682;SDS011;29285;52.128;21.060;2024-02-23T20:48:11;34.60;;;25.10;;
43682;SDS011;29285;52.128;21.060;2024-02-23T20:53:12;39.10;;;25.70;;
43682;SDS011;29285;52.128;21.060;2024-02-23T20:58:13;39.50;;;26.60;;
43682;SDS011;29285;52.128;21.060;2024-02-23T21:03:16;34.40;;;24.80;;
43682;SDS011;29285;52.128;21.060;2024-02-23T21:08:21;33.10;;;24.10;;
43682;SDS011;29285;52.128;21.060;2024-02-23T21:13:22;34.60;;;24.70;;
43682;SDS011;29285;52.128;21.060;2024-02-23T21:18:23;34.00;;;24.10;;
43682;SDS011;29285;52.128;21.060;2024-02-23T21:23:24;33.40;;;24.30;;
43682;SDS011;29285;52.128;21.060;2024-02-23T21:28:25;34.80;;;24.10;;
43682;SDS011;29285;52.128;21.060;2024-02-23T21:33:26;29.90;;;22.50;;
43682;SDS011;29285;52.128;21.060;2024-02-23T21:38:27;31.80;;;23.60;;
43682;SDS011;29285;52.128;21.060;2024-02-23T21:43:29;29.80;;;22.10;;
43682;SDS011;29285;52.128;21.060;2024-02-23T21:48:30;31.50;;;22.70;;
43682;SDS011;29285;52.128;21.060;2024-02-23T21:53:31;30.80;;;21.70;;
43682;SDS011;29285;52.128;21.060;2024-02-23T21:58:35;29.20;;;21.60;;
43682;SDS011;29285;52.128;21.060;2024-02-23T22:03:36;25.50;;;19.10;;
43682;SDS011;29285;52.128;21.060;2024-02-23T22:08:38;25.30;;;18.20;;
43682;SDS011;29285;52.128;21.060;2024-02-23T22:13:42;28.40;;;19.50;;
43682;SDS011;29285;52.128;21.060;2024-02-23T22:18:43;27.50;;;19.70;;
43682;SDS011;29285;52.128;21.060;2024-02-23T22:23:44;28.10;;;19.50;;
43682;SDS011;29285;52.128;21.060;2024-02-23T22:28:45;21.70;;;17.20;;
43682;SDS011;29285;52.128;21.060;2024-02-23T22:33:46;22.10;;;15.90;;
43682;SDS011;29285;52.128;21.060;2024-02-23T22:38:47;21.40;;;15.50;;
43682;SDS011;29285;52.128;21.060;2024-02-23T22:43:48;21.10;;;15.40;;
43682;SDS011;29285;52.128;21.060;2024-02-23T22:48:49;23.20;;;15.80;;
43682;SDS011;29285;52.128;21.060;2024-02-23T22:53:50;21.80;;;15.50;;
43682;SDS011;29285;52.128;21.060;2024-02-23T22:58:51;23.10;;;16.60;;
43682;SDS011;29285;52.128;21.060;2024-02-23T23:03:52;27.80;;;17.50;;
43682;SDS011;29285;52.128;21.060;2024-02-23T23:08:53;27.10;;;18.20;;
43682;SDS011;29285;52.128;21.060;2024-02-23T23:13:54;27.60;;;18.40;;
43682;SDS011;29285;52.128;21.060;2024-02-23T23:18:57;25.00;;;18.40;;
43682;SDS011;29285;52.128;21.060;2024-02-23T23:23:58;26.70;;;19.00;;
43682;SDS011;29285;52.128;21.060;2024-02-23T23:29:00;24.60;;;16.60;;
43682;SDS011;29285;52.128;21.060;2024-02-23T23:34:00;25.10;;;17.40;;
43682;SDS011;29285;52.128;21.060;2024-02-23T23:39:02;26.10;;;18.10;;
43682;SDS011;29285;52.128;21.060;2024-02-23T23:44:03;25.00;;;17.70;;
43682;SDS011;29285;52.128;21.060;2024-02-23T23:49:04;27.10;;;17.30;;
43682;SDS011;29285;52.128;21.060;2024-02-23T23:54:05;26.20;;;18.60;;
43682;SDS011;29285;52.128;21.060;2024-02-23T23:59:06;23.20;;;16.50;;
